createdAt,value
2019-02-04T00:02:16.970Z,0.70
2019-02-04T00:04:46.695Z,0.70
2019-02-04T00:07:16.833Z,0.70
2019-02-04T00:09:46.761Z,0.70
2019-02-04T00:12:16.353Z,0.70
2019-02-04T00:14:46.305Z,0.70
2019-02-04T00:17:16.114Z,0.70
2019-02-04T00:19:46.474Z,0.60
2019-02-04T00:22:16.661Z,0.60
2019-02-04T00:24:46.330Z,0.60
2019-02-04T00:27:16.412Z,0.60
2019-02-04T00:29:46.388Z,0.60
2019-02-04T00:32:16.583Z,0.50
2019-02-04T00:34:46.872Z,0.50
2019-02-04T00:37:16.820Z,0.50
2019-02-04T00:39:46.705Z,0.40
2019-02-04T00:42:16.919Z,0.40
2019-02-04T00:44:46.808Z,0.40
2019-02-04T00:47:17.409Z,0.40
2019-02-04T00:49:47.104Z,0.30
2019-02-04T00:52:16.691Z,0.30
2019-02-04T00:54:46.670Z,0.30
2019-02-04T00:57:16.623Z,0.30
2019-02-04T00:59:46.507Z,0.30
2019-02-04T01:02:16.847Z,0.30
2019-02-04T01:04:46.835Z,0.20
2019-02-04T01:07:16.905Z,0.20
2019-02-04T01:09:46.540Z,0.20
2019-02-04T01:12:16.479Z,0.20
2019-02-04T01:14:46.592Z,0.10
2019-02-04T01:17:16.262Z,0.10
2019-02-04T01:19:45.957Z,0.10
2019-02-04T01:22:15.610Z,0.10
2019-02-04T01:24:48.110Z,0.10
2019-02-04T01:27:17.087Z,0.10
2019-02-04T01:29:47.015Z,0.10
2019-02-04T01:32:16.758Z,0.10
2019-02-04T01:34:48.803Z,0.10
2019-02-04T01:37:18.309Z,0.00
2019-02-04T01:39:48.478Z,0.10
2019-02-04T01:42:18.607Z,0.10
2019-02-04T01:44:48.198Z,0.10
2019-02-04T01:47:17.800Z,0.00
2019-02-04T01:49:47.352Z,0.00
2019-02-04T01:52:17.288Z,0.00
2019-02-04T01:54:46.865Z,-0.10
2019-02-04T01:57:16.737Z,-0.10
2019-02-04T01:59:46.367Z,-0.10
2019-02-04T02:02:16.240Z,-0.20
2019-02-04T02:04:45.802Z,-0.20
2019-02-04T02:07:16.074Z,-0.20
2019-02-04T02:09:45.751Z,-0.20
2019-02-04T02:12:16.044Z,-0.20
2019-02-04T02:14:46.047Z,-0.20
2019-02-04T02:17:25.988Z,-0.20
2019-02-04T02:19:47.696Z,-0.30
2019-02-04T02:22:17.543Z,-0.30
2019-02-04T02:24:48.300Z,-0.30
2019-02-04T02:27:18.153Z,-0.30
2019-02-04T02:29:48.436Z,-0.30
2019-02-04T02:32:18.254Z,-0.20
2019-02-04T02:34:48.224Z,-0.20
2019-02-04T02:37:18.236Z,-0.20
2019-02-04T02:39:47.862Z,-0.20
2019-02-04T02:42:17.675Z,-0.20
2019-02-04T02:44:47.985Z,-0.20
2019-02-04T02:47:17.585Z,-0.30
2019-02-04T02:49:47.674Z,-0.20
2019-02-04T02:52:17.409Z,-0.20
2019-02-04T02:54:47.363Z,-0.20
2019-02-04T02:57:17.696Z,-0.20
2019-02-04T02:59:47.596Z,-0.20
2019-02-04T03:02:17.511Z,-0.20
2019-02-04T03:04:47.663Z,-0.10
2019-02-04T03:07:17.582Z,-0.10
2019-02-04T03:09:47.352Z,-0.10
2019-02-04T03:12:17.445Z,-0.10
2019-02-04T03:14:47.065Z,-0.10
2019-02-04T03:17:16.862Z,0.00
2019-02-04T03:19:46.443Z,0.00
2019-02-04T03:22:16.056Z,0.00
2019-02-04T03:24:46.230Z,0.10
2019-02-04T03:27:16.110Z,0.00
2019-02-04T03:29:46.105Z,0.10
2019-02-04T03:32:16.580Z,0.10
2019-02-04T03:34:46.504Z,0.10
2019-02-04T03:37:16.138Z,0.20
2019-02-04T03:39:46.453Z,0.20
2019-02-04T03:42:16.056Z,0.20
2019-02-04T03:44:46.497Z,0.30
2019-02-04T03:47:16.596Z,0.20
2019-02-04T03:49:46.356Z,0.20
2019-02-04T03:52:16.378Z,0.30
2019-02-04T03:54:46.495Z,0.30
2019-02-04T03:57:16.109Z,0.30
2019-02-04T03:59:46.213Z,0.30
2019-02-04T04:02:16.087Z,0.40
2019-02-04T04:04:46.670Z,0.40
2019-02-04T04:07:16.527Z,0.40
2019-02-04T04:09:46.711Z,0.40
2019-02-04T04:12:17.015Z,0.40
2019-02-04T04:14:46.866Z,0.40
2019-02-04T04:17:16.579Z,0.40
2019-02-04T04:19:46.312Z,0.40
2019-02-04T04:22:16.176Z,0.40
2019-02-04T04:24:45.811Z,0.40
2019-02-04T04:27:16.332Z,0.40
2019-02-04T04:29:46.325Z,0.40
2019-02-04T04:32:16.838Z,0.50
2019-02-04T04:34:46.809Z,0.50
2019-02-04T04:37:16.400Z,0.40
2019-02-04T04:39:46.336Z,0.50
2019-02-04T04:42:16.115Z,0.40
2019-02-04T04:44:45.676Z,0.50
2019-02-04T04:47:15.250Z,0.50
2019-02-04T04:49:45.722Z,0.40
2019-02-04T04:52:15.726Z,0.50
2019-02-04T04:54:45.993Z,0.50
2019-02-04T04:57:15.694Z,0.60
2019-02-04T04:59:45.530Z,0.50
2019-02-04T05:02:15.295Z,0.60
2019-02-04T05:04:45.159Z,0.50
2019-02-04T05:07:14.945Z,0.50
2019-02-04T05:09:45.060Z,0.50
2019-02-04T05:12:14.671Z,0.50
2019-02-04T05:14:44.661Z,0.50
2019-02-04T05:17:14.876Z,0.50
2019-02-04T05:19:44.618Z,0.50
2019-02-04T05:22:14.550Z,0.50
2019-02-04T05:24:44.338Z,0.50
2019-02-04T05:27:13.938Z,0.60
2019-02-04T05:29:43.919Z,0.60
2019-02-04T05:32:13.594Z,0.60
2019-02-04T05:34:43.976Z,0.60
2019-02-04T05:37:13.697Z,0.60
2019-02-04T05:39:43.318Z,0.60
2019-02-04T05:42:13.301Z,0.70
2019-02-04T05:44:42.952Z,0.60
2019-02-04T05:47:12.746Z,0.70
2019-02-04T05:49:42.533Z,0.70
2019-02-04T05:52:12.788Z,0.60
2019-02-04T05:54:42.446Z,0.60
2019-02-04T05:57:12.068Z,0.60
2019-02-04T05:59:42.076Z,0.70
2019-02-04T06:02:11.771Z,0.70
2019-02-04T06:04:41.450Z,0.70
2019-02-04T06:07:11.083Z,0.70
2019-02-04T06:09:40.775Z,0.70
2019-02-04T06:12:10.895Z,0.70
2019-02-04T06:14:41.078Z,0.70
2019-02-04T06:17:11.124Z,0.70
2019-02-04T06:19:40.783Z,0.80
2019-02-04T06:22:10.621Z,0.90
2019-02-04T06:24:40.626Z,1.00
2019-02-04T06:27:10.511Z,1.20
2019-02-04T06:29:40.592Z,1.20
2019-02-04T06:32:10.442Z,1.20
2019-02-04T06:34:40.520Z,1.10
2019-02-04T06:37:11.404Z,1.10
2019-02-04T06:39:41.138Z,1.00
2019-02-04T06:42:10.999Z,0.90
2019-02-04T06:44:43.209Z,1.00
2019-02-04T06:47:12.893Z,1.00
2019-02-04T06:49:42.467Z,0.90
2019-02-04T06:52:12.391Z,0.80
2019-02-04T06:54:42.200Z,0.90
2019-02-04T06:57:12.148Z,0.80
2019-02-04T06:59:41.895Z,0.90
2019-02-04T07:02:12.242Z,0.90
2019-02-04T07:04:41.971Z,0.80
2019-02-04T07:07:14.974Z,0.80
2019-02-04T07:09:45.428Z,0.80
2019-02-04T07:12:15.534Z,0.80
2019-02-04T07:14:45.398Z,0.80
2019-02-04T07:17:15.618Z,0.80
2019-02-04T07:19:46.025Z,0.80
2019-02-04T07:22:16.082Z,0.80
2019-02-04T07:24:46.330Z,0.80
2019-02-04T07:27:16.440Z,0.70
2019-02-04T07:29:46.657Z,0.70
2019-02-04T07:32:17.047Z,0.60
2019-02-04T07:34:47.444Z,0.60
2019-02-04T07:37:17.348Z,0.70
2019-02-04T07:39:47.253Z,0.70
2019-02-04T07:42:17.157Z,0.70
2019-02-04T07:44:47.087Z,0.80
2019-02-04T07:47:17.418Z,0.80
2019-02-04T07:49:47.448Z,0.80
2019-02-04T07:52:19.780Z,0.80
2019-02-04T07:54:49.748Z,0.80
2019-02-04T07:57:19.911Z,0.80
2019-02-04T07:59:50.084Z,0.80
2019-02-04T08:02:20.304Z,0.90
2019-02-04T08:04:50.552Z,0.90
2019-02-04T08:07:21.269Z,0.80
2019-02-04T08:09:51.640Z,0.90
2019-02-04T08:12:21.722Z,1.00
2019-02-04T08:14:53.563Z,1.00
2019-02-04T08:17:24.676Z,1.00
2019-02-04T08:19:55.379Z,1.10
2019-02-04T08:22:27.910Z,1.10
2019-02-04T08:24:57.856Z,1.20
2019-02-04T08:27:28.130Z,1.20
2019-02-04T08:29:58.249Z,1.20
2019-02-04T08:32:28.280Z,1.30
2019-02-04T08:34:58.540Z,1.40
2019-02-04T08:37:28.871Z,1.50
2019-02-04T08:39:59.728Z,1.50
2019-02-04T08:42:30.236Z,1.50
2019-02-04T08:45:00.330Z,1.60
2019-02-04T08:47:30.668Z,1.60
2019-02-04T08:50:01.945Z,1.60
2019-02-04T08:52:32.472Z,1.60
2019-02-04T08:55:02.945Z,1.60
2019-02-04T08:57:33.242Z,1.60
2019-02-04T09:00:03.284Z,1.70
2019-02-04T09:02:33.698Z,1.70
2019-02-04T09:05:03.795Z,1.70
2019-02-04T09:07:34.520Z,1.70
2019-02-04T09:10:05.472Z,1.80
2019-02-04T09:12:36.912Z,1.80
2019-02-04T09:15:08.891Z,1.80
2019-02-04T09:17:39.294Z,1.90
2019-02-04T09:20:10.861Z,1.90
2019-02-04T09:22:40.860Z,2.00
2019-02-04T09:25:12.323Z,2.10
2019-02-04T09:27:42.928Z,2.10
2019-02-04T09:30:16.366Z,2.10
2019-02-04T09:32:46.731Z,2.10
2019-02-04T09:35:18.361Z,2.10
2019-02-04T09:37:49.079Z,2.10
2019-02-04T09:40:42.327Z,2.20
2019-02-04T09:43:14.580Z,2.30
2019-02-04T09:45:45.741Z,2.30
2019-02-04T09:48:20.547Z,2.40
2019-02-04T09:50:53.505Z,2.40
2019-02-04T09:53:23.585Z,2.40
2019-02-04T09:55:53.650Z,2.40
2019-02-04T09:58:23.440Z,2.50
2019-02-04T10:00:53.927Z,2.40
2019-02-04T10:03:24.013Z,2.50
2019-02-04T10:05:54.430Z,2.60
2019-02-04T10:08:24.696Z,2.60
2019-02-04T10:10:54.718Z,2.70
2019-02-04T10:13:24.708Z,2.70
2019-02-04T10:15:54.939Z,2.70
2019-02-04T10:18:25.364Z,2.80
2019-02-04T10:20:55.458Z,2.90
2019-02-04T10:23:25.358Z,2.90
2019-02-04T10:25:55.186Z,2.90
2019-02-04T10:28:25.591Z,2.90
2019-02-04T10:30:56.130Z,2.90
2019-02-04T10:33:26.355Z,3.10
2019-02-04T10:35:56.316Z,3.10
2019-02-04T10:38:26.070Z,3.10
2019-02-04T10:40:56.155Z,3.20
2019-02-04T10:43:26.044Z,3.20
2019-02-04T10:45:56.119Z,3.30
2019-02-04T10:48:26.382Z,3.40
2019-02-04T10:50:57.361Z,3.40
2019-02-04T10:53:27.441Z,3.40
2019-02-04T10:55:57.232Z,3.50
2019-02-04T10:58:27.130Z,3.50
2019-02-04T11:00:57.248Z,3.60
2019-02-04T11:03:27.616Z,3.70
2019-02-04T11:05:57.799Z,3.80
2019-02-04T11:08:27.688Z,3.80
2019-02-04T11:10:58.013Z,3.90
2019-02-04T11:13:28.289Z,3.80
2019-02-04T11:15:58.680Z,3.80
2019-02-04T11:18:28.580Z,3.70
2019-02-04T11:21:00.186Z,3.80
2019-02-04T11:23:30.088Z,3.80
2019-02-04T11:26:01.144Z,3.80
2019-02-04T11:28:30.903Z,3.90
2019-02-04T11:31:02.991Z,3.90
2019-02-04T11:33:32.817Z,3.90
2019-02-04T11:36:02.694Z,3.90
2019-02-04T11:38:33.004Z,4.00
2019-02-04T11:41:03.244Z,4.10
2019-02-04T11:43:33.741Z,4.10
2019-02-04T11:46:03.993Z,4.10
2019-02-04T11:48:34.095Z,4.20
2019-02-04T11:51:09.664Z,4.20
2019-02-04T11:53:35.445Z,4.20
2019-02-04T11:56:05.744Z,4.20
2019-02-04T11:58:35.890Z,4.20
2019-02-04T12:01:06.630Z,4.20
2019-02-04T12:03:36.628Z,4.30
2019-02-04T12:06:06.707Z,4.30
2019-02-04T12:08:36.711Z,4.40
2019-02-04T12:11:13.157Z,4.40
2019-02-04T12:13:43.925Z,4.40
2019-02-04T12:16:14.160Z,4.50
2019-02-04T12:18:44.665Z,4.50
2019-02-04T12:21:21.702Z,4.50
2019-02-04T12:23:46.382Z,4.50
2019-02-04T12:26:16.454Z,4.50
2019-02-04T12:28:46.418Z,4.50
2019-02-04T12:31:16.263Z,4.50
2019-02-04T12:33:46.345Z,4.50
2019-02-04T12:36:16.675Z,4.50
2019-02-04T12:38:46.773Z,4.50
2019-02-04T12:41:17.265Z,4.50
2019-02-04T12:43:47.618Z,4.50
2019-02-04T12:46:17.979Z,4.40
2019-02-04T12:48:48.032Z,4.40
2019-02-04T12:51:17.881Z,4.40
2019-02-04T12:53:47.740Z,4.50
2019-02-04T12:56:17.535Z,4.40
2019-02-04T12:58:55.406Z,4.40
2019-02-04T13:01:18.784Z,4.40
2019-02-04T13:03:48.974Z,4.40
2019-02-04T13:06:19.215Z,4.50
2019-02-04T13:08:49.488Z,4.60
2019-02-04T13:11:20.294Z,4.60
2019-02-04T13:13:50.472Z,4.70
2019-02-04T13:16:20.606Z,4.60
2019-02-04T13:18:51.187Z,4.70
2019-02-04T13:21:21.946Z,4.80
2019-02-04T13:23:51.929Z,4.80
2019-02-04T13:26:22.200Z,4.80
2019-02-04T13:28:52.276Z,4.80
2019-02-04T13:31:22.496Z,4.70
2019-02-04T13:33:52.560Z,4.70
2019-02-04T13:36:22.611Z,4.80
2019-02-04T13:38:52.354Z,4.70
2019-02-04T13:41:22.646Z,4.80
2019-02-04T13:43:52.561Z,4.90
2019-02-04T13:46:22.345Z,4.80
2019-02-04T13:48:52.439Z,4.80
2019-02-04T13:51:23.159Z,4.70
2019-02-04T13:53:53.096Z,4.60
2019-02-04T13:56:22.949Z,4.70
2019-02-04T13:58:53.105Z,4.70
2019-02-04T14:01:22.852Z,4.70
2019-02-04T14:03:53.062Z,4.70
2019-02-04T14:06:22.968Z,4.80
2019-02-04T14:08:53.038Z,4.80
2019-02-04T14:11:23.049Z,4.70
2019-02-04T14:13:52.904Z,4.60
2019-02-04T14:16:22.814Z,4.60
2019-02-04T14:18:52.927Z,4.60
2019-02-04T14:21:23.229Z,4.60
2019-02-04T14:23:53.095Z,4.70
2019-02-04T14:26:23.361Z,4.60
2019-02-04T14:28:54.291Z,4.60
2019-02-04T14:31:24.116Z,4.70
2019-02-04T14:33:54.125Z,4.50
2019-02-04T14:36:24.067Z,4.50
2019-02-04T14:38:54.374Z,4.40
2019-02-04T14:41:24.478Z,4.50
2019-02-04T14:43:58.429Z,4.50
2019-02-04T14:46:52.554Z,4.50
2019-02-04T14:50:06.557Z,4.50
2019-02-04T14:52:50.810Z,4.50
2019-02-04T14:56:13.963Z,4.40
2019-02-04T14:59:16.166Z,4.50
2019-02-04T15:02:19.326Z,4.40
2019-02-04T15:05:33.686Z,4.50
2019-02-04T15:08:56.504Z,4.50
2019-02-04T15:11:44.958Z,4.40
2019-02-04T15:14:41.923Z,4.30
2019-02-04T15:17:22.174Z,4.30
2019-02-04T15:20:39.916Z,4.30
2019-02-04T15:23:48.941Z,4.30
2019-02-04T15:26:58.827Z,4.30
2019-02-04T15:29:51.283Z,4.50
2019-02-04T15:32:49.916Z,4.40
2019-02-04T15:36:15.069Z,4.40
2019-02-04T15:39:23.403Z,4.30
2019-02-04T15:42:32.318Z,4.30
2019-02-04T15:45:28.857Z,4.30
2019-02-04T15:48:06.757Z,4.40
2019-02-04T15:51:13.020Z,4.40
2019-02-04T15:53:42.657Z,4.30
2019-02-04T15:56:12.587Z,4.30
2019-02-04T15:58:42.665Z,4.20
2019-02-04T16:01:13.027Z,4.20
2019-02-04T16:03:42.674Z,4.20
2019-02-04T16:06:12.495Z,4.20
2019-02-04T16:08:43.182Z,4.30
2019-02-04T16:11:13.345Z,4.20
2019-02-04T16:13:43.062Z,4.30
2019-02-04T16:16:12.984Z,4.20
2019-02-04T16:18:43.020Z,4.20
2019-02-04T16:21:12.766Z,4.30
2019-02-04T16:23:43.075Z,4.30
2019-02-04T16:26:15.199Z,4.20
2019-02-04T16:28:44.365Z,4.20
2019-02-04T16:31:14.529Z,4.30
2019-02-04T16:33:44.121Z,4.40
2019-02-04T16:36:14.174Z,4.30
2019-02-04T16:38:44.182Z,4.20
2019-02-04T16:41:14.477Z,4.10
2019-02-04T16:43:44.044Z,4.10
2019-02-04T16:46:14.084Z,4.10
2019-02-04T16:48:43.863Z,4.00
2019-02-04T16:51:14.109Z,4.00
2019-02-04T16:53:44.325Z,4.00
2019-02-04T16:56:14.077Z,4.10
2019-02-04T16:58:43.987Z,4.00
2019-02-04T17:01:14.171Z,4.00
2019-02-04T17:03:44.056Z,4.00
2019-02-04T17:06:14.418Z,4.00
2019-02-04T17:08:44.168Z,3.90
2019-02-04T17:11:13.867Z,3.90
2019-02-04T17:13:43.826Z,3.90
2019-02-04T17:16:13.556Z,3.90
2019-02-04T17:18:43.650Z,3.90
2019-02-04T17:21:16.670Z,3.90
2019-02-04T17:23:47.259Z,3.80
2019-02-04T17:26:16.806Z,3.90
2019-02-04T17:28:46.491Z,3.90
2019-02-04T17:31:16.080Z,3.90
2019-02-04T17:33:45.886Z,3.90
2019-02-04T17:36:15.655Z,3.90
2019-02-04T17:38:45.417Z,3.90
2019-02-04T17:41:15.291Z,3.90
2019-02-04T17:43:44.940Z,3.90
2019-02-04T17:46:15.430Z,3.90
2019-02-04T17:48:45.888Z,4.00
2019-02-04T17:51:15.624Z,3.90
2019-02-04T17:53:45.614Z,3.90
2019-02-04T17:56:15.563Z,3.90
2019-02-04T17:58:45.322Z,3.80
2019-02-04T18:01:15.916Z,3.90
2019-02-04T18:03:45.940Z,3.90
2019-02-04T18:06:15.547Z,3.80
2019-02-04T18:08:45.245Z,3.80
2019-02-04T18:11:14.965Z,3.90
2019-02-04T18:13:44.861Z,3.90
2019-02-04T18:16:15.108Z,4.00
2019-02-04T18:18:44.714Z,3.90
2019-02-04T18:21:14.653Z,3.90
2019-02-04T18:23:46.282Z,4.00
2019-02-04T18:26:16.009Z,3.90
2019-02-04T18:28:47.759Z,3.90
2019-02-04T18:31:17.181Z,3.90
2019-02-04T18:33:47.085Z,3.90
2019-02-04T18:36:17.000Z,3.90
2019-02-04T18:38:47.126Z,3.90
2019-02-04T18:41:16.679Z,3.90
2019-02-04T18:43:46.338Z,3.90
2019-02-04T18:46:16.310Z,3.90
2019-02-04T18:48:46.730Z,3.90
2019-02-04T18:51:16.476Z,3.90
2019-02-04T18:53:57.146Z,3.90
2019-02-04T18:56:17.350Z,3.90
2019-02-04T18:58:47.188Z,3.90
2019-02-04T19:01:17.219Z,3.90
2019-02-04T19:03:46.936Z,3.90
2019-02-04T19:06:17.077Z,3.90
2019-02-04T19:08:47.258Z,3.80
2019-02-04T19:11:17.204Z,3.80
2019-02-04T19:13:46.871Z,3.70
2019-02-04T19:16:16.707Z,3.80
2019-02-04T19:18:46.871Z,3.80
2019-02-04T19:21:17.193Z,3.80
2019-02-04T19:23:47.473Z,3.80
2019-02-04T19:26:17.245Z,3.80
2019-02-04T19:28:46.923Z,3.80
2019-02-04T19:31:23.054Z,3.70
2019-02-04T19:33:52.866Z,3.70
2019-02-04T19:36:22.752Z,3.70
2019-02-04T19:38:52.489Z,3.70
2019-02-04T19:41:22.258Z,3.70
2019-02-04T19:43:53.217Z,3.80
2019-02-04T19:46:23.053Z,3.90
2019-02-04T19:48:52.865Z,3.80
2019-02-04T19:51:22.741Z,3.80
2019-02-04T19:53:53.086Z,3.70
2019-02-04T19:56:23.332Z,3.70
2019-02-04T19:58:52.988Z,3.80
2019-02-04T20:01:23.234Z,3.80
2019-02-04T20:03:52.961Z,3.80
2019-02-04T20:06:22.874Z,3.80
2019-02-04T20:08:53.015Z,3.80
2019-02-04T20:11:23.008Z,3.80
2019-02-04T20:13:53.659Z,3.80
2019-02-04T20:16:23.449Z,3.80
2019-02-04T20:18:54.327Z,3.80
2019-02-04T20:21:24.576Z,3.70
2019-02-04T20:23:54.365Z,3.60
2019-02-04T20:26:23.947Z,3.60
2019-02-04T20:28:53.663Z,3.60
2019-02-04T20:31:23.235Z,3.60
2019-02-04T20:33:53.379Z,3.50
2019-02-04T20:36:23.074Z,3.50
2019-02-04T20:38:53.258Z,3.50
2019-02-04T20:41:23.392Z,3.60
2019-02-04T20:43:53.483Z,3.60
2019-02-04T20:46:24.204Z,3.60
2019-02-04T20:48:53.844Z,3.60
2019-02-04T20:51:23.770Z,3.60
2019-02-04T20:53:53.770Z,3.60
2019-02-04T20:56:23.366Z,3.70
2019-02-04T20:58:53.428Z,3.70
2019-02-04T21:01:23.408Z,3.60
2019-02-04T21:03:53.740Z,3.70
2019-02-04T21:06:23.576Z,3.60
2019-02-04T21:08:53.280Z,3.60
2019-02-04T21:11:23.096Z,3.50
2019-02-04T21:13:53.027Z,3.50
2019-02-04T21:16:23.097Z,3.60
2019-02-04T21:18:52.997Z,3.50
2019-02-04T21:21:23.825Z,3.50
2019-02-04T21:23:53.465Z,3.60
2019-02-04T21:26:23.356Z,3.60
2019-02-04T21:28:53.148Z,3.60
2019-02-04T21:31:22.846Z,3.60
2019-02-04T21:33:52.919Z,3.50
2019-02-04T21:36:22.969Z,3.60
2019-02-04T21:38:52.666Z,3.60
2019-02-04T21:41:22.755Z,3.70
2019-02-04T21:43:52.738Z,3.60
2019-02-04T21:46:22.413Z,3.60
2019-02-04T21:48:52.887Z,3.60
2019-02-04T21:51:22.518Z,3.50
2019-02-04T21:53:52.762Z,3.50
2019-02-04T21:56:22.761Z,3.50
2019-02-04T21:58:52.778Z,3.50
2019-02-04T22:01:22.421Z,3.50
2019-02-04T22:03:52.396Z,3.50
2019-02-04T22:06:22.315Z,3.40
2019-02-04T22:08:52.645Z,3.50
2019-02-04T22:11:22.539Z,3.50
2019-02-04T22:13:52.262Z,3.50
2019-02-04T22:16:22.192Z,3.50
2019-02-04T22:18:51.960Z,3.40
2019-02-04T22:21:22.378Z,3.40
2019-02-04T22:23:52.234Z,3.40
2019-02-04T22:26:22.549Z,3.50
2019-02-04T22:28:52.615Z,3.50
2019-02-04T22:31:22.681Z,3.40
2019-02-04T22:33:52.408Z,3.40
2019-02-04T22:36:22.130Z,3.40
2019-02-04T22:38:51.959Z,3.40
2019-02-04T22:41:21.862Z,3.40
2019-02-04T22:43:52.072Z,3.40
2019-02-04T22:46:21.981Z,3.40
2019-02-04T22:48:51.988Z,3.40
2019-02-04T22:51:21.589Z,3.40
2019-02-04T22:53:52.117Z,3.50
2019-02-04T22:56:21.794Z,3.40
2019-02-04T22:58:52.294Z,3.40
2019-02-04T23:01:55.056Z,3.40
2019-02-04T23:04:25.313Z,3.50
2019-02-04T23:06:55.277Z,3.60
2019-02-04T23:09:25.263Z,3.60
2019-02-04T23:11:55.254Z,3.50
2019-02-04T23:14:25.643Z,3.50
2019-02-04T23:16:55.833Z,3.50
2019-02-04T23:19:25.779Z,3.50
2019-02-04T23:21:55.592Z,3.50
2019-02-04T23:24:25.651Z,3.50
2019-02-04T23:26:55.619Z,3.50
2019-02-04T23:29:25.409Z,3.50
2019-02-04T23:31:55.728Z,3.50
2019-02-04T23:34:25.810Z,3.60
2019-02-04T23:36:55.640Z,3.60
2019-02-04T23:39:25.638Z,3.60
2019-02-04T23:41:58.235Z,3.60
2019-02-04T23:44:27.451Z,3.60
2019-02-04T23:46:57.241Z,3.60
2019-02-04T23:49:27.252Z,3.50
2019-02-04T23:51:57.005Z,3.60
2019-02-04T23:54:26.848Z,3.60
2019-02-04T23:56:56.688Z,3.60
2019-02-04T23:59:27.031Z,3.70
